createdAt,value
2023-02-28T00:00:21.217Z,35.63
2023-02-28T00:02:48.189Z,35.30
2023-02-28T00:05:17.387Z,38.60
2023-02-28T00:07:44.447Z,32.13
2023-02-28T00:10:14.348Z,34.10
2023-02-28T00:12:41.570Z,36.05
2023-02-28T00:15:11.936Z,33.30
2023-02-28T00:17:38.913Z,44.05
2023-02-28T00:20:11.046Z,36.33
2023-02-28T00:22:39.518Z,36.00
2023-02-28T00:25:08.016Z,39.95
2023-02-28T00:27:36.129Z,34.20
2023-02-28T00:30:02.856Z,36.60
2023-02-28T00:32:29.503Z,29.88
2023-02-28T00:34:56.389Z,38.00
2023-02-28T00:37:23.018Z,48.08
2023-02-28T00:39:49.737Z,38.83
2023-02-28T00:42:16.807Z,35.70
2023-02-28T00:44:43.538Z,41.13
2023-02-28T00:47:10.181Z,38.03
2023-02-28T00:49:37.077Z,43.50
2023-02-28T00:52:03.875Z,45.40
2023-02-28T00:54:30.571Z,43.60
2023-02-28T00:56:57.190Z,38.85
2023-02-28T00:59:23.860Z,49.85
2023-02-28T01:01:50.564Z,52.00
2023-02-28T01:04:17.381Z,43.30
2023-02-28T01:06:44.509Z,45.40
2023-02-28T01:09:11.719Z,41.42
2023-02-28T01:11:38.478Z,43.60
2023-02-28T01:14:05.284Z,44.88
2023-02-28T01:16:31.994Z,48.65
2023-02-28T01:18:59.053Z,46.03
2023-02-28T01:21:25.768Z,46.47
2023-02-28T01:23:52.522Z,38.25
2023-02-28T01:26:22.521Z,38.13
2023-02-28T01:28:50.670Z,38.03
2023-02-28T01:31:19.219Z,42.05
2023-02-28T01:33:46.653Z,39.25
2023-02-28T01:36:17.930Z,35.13
2023-02-28T01:38:45.078Z,35.72
2023-02-28T01:41:21.133Z,39.38
2023-02-28T01:43:47.644Z,37.25
2023-02-28T01:46:15.408Z,34.30
2023-02-28T01:48:49.136Z,31.58
2023-02-28T01:51:23.942Z,39.83
2023-02-28T01:53:55.285Z,30.23
2023-02-28T01:56:27.297Z,31.80
2023-02-28T01:58:55.187Z,33.28
2023-02-28T02:01:23.546Z,35.35
2023-02-28T02:03:56.367Z,29.50
2023-02-28T02:06:30.259Z,33.28
2023-02-28T02:08:57.101Z,34.90
2023-02-28T02:11:26.423Z,35.22
2023-02-28T02:14:05.176Z,40.53
2023-02-28T02:16:34.436Z,32.40
2023-02-28T02:19:19.796Z,36.33
2023-02-28T02:22:20.560Z,37.05
2023-02-28T02:25:05.911Z,37.15
2023-02-28T02:28:05.962Z,37.38
2023-02-28T02:30:32.502Z,36.15
2023-02-28T02:33:45.611Z,35.63
2023-02-28T02:36:21.138Z,38.58
2023-02-28T02:39:03.369Z,37.72
2023-02-28T02:41:59.250Z,43.72
2023-02-28T02:44:32.571Z,45.40
2023-02-28T02:47:05.772Z,48.38
2023-02-28T02:49:34.276Z,46.28
2023-02-28T02:52:06.593Z,44.65
2023-02-28T02:57:10.153Z,38.30
2023-02-28T02:59:38.752Z,45.63
2023-02-28T03:02:09.714Z,43.75
2023-02-28T03:04:43.488Z,58.00
2023-02-28T03:07:10.491Z,44.28
2023-02-28T03:09:37.096Z,54.00
2023-02-28T03:12:04.953Z,45.38
2023-02-28T03:14:55.505Z,49.53
2023-02-28T03:17:31.969Z,53.30
2023-02-28T03:20:08.420Z,54.50
2023-02-28T03:22:53.534Z,50.10
2023-02-28T03:25:38.727Z,54.28
2023-02-28T03:28:38.085Z,56.47
2023-02-28T03:31:21.939Z,54.28
2023-02-28T03:33:56.227Z,56.90
2023-02-28T03:36:30.120Z,61.88
2023-02-28T03:39:03.682Z,69.65
2023-02-28T03:41:53.625Z,51.42
2023-02-28T03:44:30.051Z,60.60
2023-02-28T03:47:06.031Z,64.38
2023-02-28T03:49:48.844Z,57.88
2023-02-28T03:52:15.668Z,64.22
2023-02-28T03:54:49.358Z,56.15
2023-02-28T03:57:44.577Z,64.00
2023-02-28T04:00:16.738Z,54.97
2023-02-28T04:02:43.395Z,49.28
2023-02-28T04:05:10.072Z,40.80
2023-02-28T04:07:36.816Z,50.08
2023-02-28T04:10:04.851Z,45.08
2023-02-28T04:12:31.473Z,44.40
2023-02-28T04:14:58.059Z,54.15
2023-02-28T04:17:24.653Z,49.35
2023-02-28T04:19:51.336Z,69.07
2023-02-28T04:22:18.872Z,47.25
2023-02-28T04:24:45.956Z,46.70
2023-02-28T04:27:12.578Z,53.33
2023-02-28T04:29:39.257Z,47.80
2023-02-28T04:32:06.233Z,53.63
2023-02-28T04:34:33.901Z,53.90
2023-02-28T04:37:17.038Z,60.30
2023-02-28T04:39:44.721Z,62.72
2023-02-28T04:42:12.849Z,73.13
2023-02-28T04:44:39.392Z,72.95
2023-02-28T04:47:06.256Z,57.55
2023-02-28T04:49:33.386Z,65.20
2023-02-28T04:51:59.972Z,55.78
2023-02-28T04:54:26.699Z,42.90
2023-02-28T04:56:53.374Z,45.60
2023-02-28T04:59:20.005Z,42.38
2023-02-28T05:01:49.446Z,43.80
2023-02-28T05:04:16.563Z,60.95
2023-02-28T05:06:43.392Z,50.80
2023-02-28T05:09:12.612Z,51.47
2023-02-28T05:11:40.556Z,44.55
2023-02-28T05:14:12.300Z,42.50
2023-02-28T05:16:38.987Z,44.75
2023-02-28T05:19:06.068Z,42.30
2023-02-28T05:21:35.825Z,46.10
2023-02-28T05:24:05.879Z,43.88
2023-02-28T05:26:35.991Z,45.85
2023-02-28T05:29:02.858Z,45.40
2023-02-28T05:31:29.955Z,44.80
2023-02-28T05:33:57.063Z,41.78
2023-02-28T05:36:24.043Z,46.22
2023-02-28T05:38:53.388Z,44.65
2023-02-28T05:41:21.074Z,55.17
2023-02-28T05:43:52.424Z,48.00
2023-02-28T05:46:19.379Z,45.13
2023-02-28T05:48:48.943Z,47.50
2023-02-28T05:51:16.842Z,47.97
2023-02-28T05:53:44.060Z,49.33
2023-02-28T05:56:11.130Z,54.40
2023-02-28T05:58:37.927Z,48.25
2023-02-28T06:01:23.044Z,45.60
2023-02-28T06:03:50.024Z,52.13
2023-02-28T06:06:16.862Z,55.97
2023-02-28T06:08:45.743Z,59.30
2023-02-28T06:11:12.696Z,62.90
2023-02-28T06:13:40.061Z,62.67
2023-02-28T06:16:06.873Z,65.75
2023-02-28T06:18:33.801Z,78.65
2023-02-28T06:21:00.551Z,87.53
2023-02-28T06:23:27.390Z,91.93
2023-02-28T06:25:54.356Z,83.78
2023-02-28T06:28:21.141Z,77.50
2023-02-28T06:30:48.055Z,72.63
2023-02-28T06:33:14.780Z,72.60
2023-02-28T06:35:45.752Z,73.50
2023-02-28T06:38:12.778Z,75.68
2023-02-28T06:40:39.520Z,76.45
2023-02-28T06:43:06.288Z,74.25
2023-02-28T06:45:33.189Z,69.65
2023-02-28T06:48:01.217Z,69.07
2023-02-28T06:50:30.476Z,64.60
2023-02-28T06:52:57.607Z,71.15
2023-02-28T06:55:24.434Z,59.75
2023-02-28T06:57:51.752Z,68.35
2023-02-28T07:00:18.616Z,80.93
2023-02-28T07:02:45.672Z,70.35
2023-02-28T07:05:12.425Z,76.90
2023-02-28T07:07:41.627Z,76.93
2023-02-28T07:10:08.912Z,76.43
2023-02-28T07:12:37.311Z,75.18
2023-02-28T07:15:05.690Z,78.22
2023-02-28T07:17:32.430Z,71.68
2023-02-28T07:19:59.100Z,88.93
2023-02-28T07:22:26.009Z,77.45
2023-02-28T07:24:52.902Z,85.95
2023-02-28T07:27:24.785Z,82.50
2023-02-28T07:29:51.530Z,72.05
2023-02-28T07:32:18.475Z,76.93
2023-02-28T07:34:45.682Z,75.13
2023-02-28T07:37:12.535Z,77.43
2023-02-28T07:39:39.419Z,76.40
2023-02-28T07:42:07.738Z,70.72
2023-02-28T07:44:34.396Z,72.07
2023-02-28T07:47:01.108Z,86.30
2023-02-28T07:49:27.964Z,74.20
2023-02-28T07:51:54.826Z,75.28
2023-02-28T07:54:21.630Z,79.63
2023-02-28T07:56:48.312Z,75.47
2023-02-28T07:59:15.008Z,77.97
2023-02-28T08:01:41.702Z,73.72
2023-02-28T08:04:08.392Z,73.35
2023-02-28T08:06:35.100Z,64.95
2023-02-28T08:09:01.857Z,74.72
2023-02-28T08:11:28.771Z,75.28
2023-02-28T08:13:56.116Z,70.97
2023-02-28T08:16:23.420Z,60.22
2023-02-28T08:18:52.033Z,64.35
2023-02-28T08:21:18.863Z,63.67
2023-02-28T08:23:48.860Z,57.42
2023-02-28T08:26:17.984Z,61.38
2023-02-28T08:28:45.473Z,51.28
2023-02-28T08:31:15.464Z,52.95
2023-02-28T08:33:43.143Z,57.10
2023-02-28T08:36:10.419Z,72.50
2023-02-28T08:38:38.341Z,64.38
2023-02-28T08:41:08.285Z,69.40
2023-02-28T08:43:35.827Z,64.10
2023-02-28T08:46:02.576Z,66.07
2023-02-28T08:48:30.952Z,64.78
2023-02-28T08:51:06.629Z,57.28
2023-02-28T08:53:34.091Z,57.67
2023-02-28T08:56:03.310Z,69.45
2023-02-28T08:58:30.192Z,64.72
2023-02-28T09:00:57.164Z,62.38
2023-02-28T09:03:25.379Z,60.83
2023-02-28T09:06:00.669Z,65.45
2023-02-28T09:08:31.368Z,64.35
2023-02-28T09:11:00.667Z,63.42
2023-02-28T09:13:28.941Z,65.28
2023-02-28T09:15:55.685Z,58.55
2023-02-28T09:18:22.514Z,69.53
2023-02-28T09:20:49.159Z,59.03
2023-02-28T09:23:15.950Z,73.93
2023-02-28T09:25:51.356Z,65.07
2023-02-28T09:28:18.086Z,63.58
2023-02-28T09:30:51.158Z,65.75
2023-02-28T09:33:21.703Z,70.90
2023-02-28T09:35:51.696Z,59.42
2023-02-28T09:38:18.788Z,64.15
2023-02-28T09:40:51.449Z,61.00
2023-02-28T09:43:21.362Z,54.50
2023-02-28T09:46:01.985Z,51.53
2023-02-28T09:48:38.519Z,44.88
2023-02-28T09:51:22.631Z,49.03
2023-02-28T09:53:53.377Z,50.50
2023-02-28T09:56:29.425Z,46.05
2023-02-28T09:59:02.430Z,50.17
2023-02-28T10:01:40.353Z,42.00
2023-02-28T10:04:35.936Z,40.40
2023-02-28T10:07:08.339Z,44.63
2023-02-28T10:09:37.265Z,45.28
2023-02-28T10:12:10.701Z,41.75
2023-02-28T10:14:40.889Z,40.85
2023-02-28T10:17:16.275Z,42.78
2023-02-28T10:20:02.324Z,49.95
2023-02-28T10:22:41.176Z,52.60
2023-02-28T10:25:24.410Z,47.35
2023-02-28T10:27:55.141Z,52.88
2023-02-28T10:30:21.952Z,53.30
2023-02-28T10:32:54.648Z,47.63
2023-02-28T10:35:27.071Z,45.75
2023-02-28T10:38:01.868Z,63.92
2023-02-28T10:40:36.598Z,47.15
2023-02-28T10:43:04.889Z,33.30
2023-02-28T10:45:35.021Z,34.75
2023-02-28T10:48:15.063Z,36.42
2023-02-28T10:50:50.964Z,22.88
2023-02-28T10:53:26.748Z,36.08
2023-02-28T10:56:11.456Z,27.75
2023-02-28T10:58:57.268Z,26.60
2023-02-28T11:01:26.446Z,40.80
2023-02-28T11:03:54.050Z,30.38
2023-02-28T11:06:24.256Z,30.55
2023-02-28T11:08:56.515Z,48.47
2023-02-28T11:14:05.651Z,29.27
2023-02-28T11:16:38.028Z,32.47
2023-02-28T11:19:21.777Z,23.88
2023-02-28T11:22:06.446Z,29.70
2023-02-28T11:24:40.800Z,33.83
2023-02-28T11:27:08.423Z,28.52
2023-02-28T11:29:36.035Z,37.47
2023-02-28T11:32:04.855Z,37.28
2023-02-28T11:34:33.302Z,24.75
2023-02-28T11:37:01.830Z,28.60
2023-02-28T11:39:29.276Z,28.25
2023-02-28T11:42:18.016Z,28.48
2023-02-28T11:45:22.844Z,29.25
2023-02-28T11:48:20.879Z,27.80
2023-02-28T11:51:12.102Z,35.70
2023-02-28T11:54:13.064Z,19.65
2023-02-28T11:56:49.050Z,33.17
2023-02-28T11:59:46.851Z,29.00
2023-02-28T12:02:29.385Z,26.05
2023-02-28T12:05:32.175Z,29.58
2023-02-28T12:08:12.008Z,29.70
2023-02-28T12:10:54.469Z,27.35
2023-02-28T12:16:39.902Z,19.23
2023-02-28T12:19:29.434Z,35.97
2023-02-28T12:22:16.680Z,25.17
2023-02-28T12:25:07.758Z,27.33
2023-02-28T12:27:39.732Z,27.58
2023-02-28T12:30:17.365Z,33.47
2023-02-28T12:32:49.177Z,25.02
2023-02-28T12:35:36.228Z,25.45
2023-02-28T12:38:28.202Z,26.33
2023-02-28T12:41:01.304Z,23.95
2023-02-28T12:43:36.054Z,25.48
2023-02-28T12:46:18.888Z,21.20
2023-02-28T12:48:56.542Z,17.48
2023-02-28T12:51:25.102Z,27.42
2023-02-28T12:54:26.049Z,16.67
2023-02-28T12:57:14.523Z,20.25
2023-02-28T12:59:57.110Z,32.05
2023-02-28T13:02:41.904Z,20.50
2023-02-28T13:05:20.835Z,26.42
2023-02-28T13:08:24.567Z,20.60
2023-02-28T13:11:10.046Z,31.73
2023-02-28T13:14:07.759Z,18.45
2023-02-28T13:17:15.832Z,24.88
2023-02-28T13:19:57.857Z,17.85
2023-02-28T13:22:36.569Z,25.60
2023-02-28T13:25:03.451Z,37.15
2023-02-28T13:27:41.695Z,26.20
2023-02-28T13:30:48.811Z,30.70
2023-02-28T13:33:40.779Z,24.70
2023-02-28T13:36:10.712Z,23.15
2023-02-28T13:38:40.317Z,18.70
2023-02-28T13:41:38.691Z,31.25
2023-02-28T13:44:27.490Z,27.05
2023-02-28T13:50:07.203Z,29.77
2023-02-28T13:53:23.688Z,22.75
2023-02-28T13:56:35.601Z,31.70
2023-02-28T14:00:24.889Z,24.00
2023-02-28T14:03:18.530Z,34.15
2023-02-28T14:05:45.859Z,22.42
2023-02-28T14:08:22.007Z,24.08
2023-02-28T14:10:51.275Z,26.67
2023-02-28T14:13:48.452Z,26.98
2023-02-28T14:16:19.077Z,30.95
2023-02-28T14:19:13.189Z,24.20
2023-02-28T14:21:52.289Z,28.17
2023-02-28T14:24:34.454Z,14.65
2023-02-28T14:27:32.326Z,27.73
2023-02-28T14:30:36.540Z,29.73
2023-02-28T14:33:27.722Z,26.88
2023-02-28T14:36:02.679Z,14.80
2023-02-28T14:38:58.283Z,20.85
2023-02-28T14:41:38.499Z,28.60
2023-02-28T14:44:28.861Z,30.63
2023-02-28T14:47:06.540Z,26.25
2023-02-28T14:49:46.607Z,12.65
2023-02-28T14:52:25.391Z,29.67
2023-02-28T14:54:58.525Z,25.60
2023-02-28T14:57:40.082Z,28.85
2023-02-28T15:00:24.356Z,21.97
2023-02-28T15:02:55.153Z,26.33
2023-02-28T15:05:28.509Z,25.83
2023-02-28T15:08:16.297Z,27.30
2023-02-28T15:10:56.751Z,27.77
2023-02-28T15:13:24.718Z,23.85
2023-02-28T15:16:03.159Z,28.58
2023-02-28T15:18:33.580Z,29.08
2023-02-28T15:21:05.701Z,26.83
2023-02-28T15:23:33.795Z,26.30
2023-02-28T15:26:01.405Z,27.88
2023-02-28T15:28:29.525Z,28.75
2023-02-28T15:31:04.499Z,22.17
2023-02-28T15:33:33.757Z,22.42
2023-02-28T15:36:13.750Z,28.92
2023-02-28T15:38:40.849Z,21.42
2023-02-28T15:41:26.835Z,25.20
2023-02-28T15:44:28.067Z,15.77
2023-02-28T15:47:29.352Z,30.98
2023-02-28T15:50:04.005Z,15.18
2023-02-28T15:52:45.118Z,16.38
2023-02-28T15:55:20.246Z,17.17
2023-02-28T15:57:51.221Z,13.55
2023-02-28T16:00:23.534Z,23.05
2023-02-28T16:05:35.319Z,16.15
2023-02-28T16:08:17.322Z,12.60
2023-02-28T16:10:44.021Z,13.07
2023-02-28T16:13:15.134Z,20.08
2023-02-28T16:15:44.283Z,8.38
2023-02-28T16:18:14.724Z,14.75
2023-02-28T16:20:41.724Z,16.45
2023-02-28T16:23:09.249Z,19.30
2023-02-28T16:25:39.747Z,13.73
2023-02-28T16:28:21.814Z,21.40
2023-02-28T16:30:48.621Z,17.52
2023-02-28T16:33:15.457Z,32.03
2023-02-28T16:35:42.095Z,22.90
2023-02-28T16:38:08.743Z,20.13
2023-02-28T16:40:37.179Z,9.43
2023-02-28T16:43:09.241Z,18.38
2023-02-28T16:45:35.956Z,9.88
2023-02-28T16:48:02.668Z,10.85
2023-02-28T16:50:31.124Z,16.98
2023-02-28T16:52:57.769Z,16.92
2023-02-28T16:55:26.620Z,8.88
2023-02-28T16:57:56.116Z,15.30
2023-02-28T17:00:24.098Z,11.10
2023-02-28T17:02:50.930Z,16.50
2023-02-28T17:05:19.769Z,11.88
2023-02-28T17:07:47.568Z,20.42
2023-02-28T17:10:20.538Z,15.15
2023-02-28T17:12:47.506Z,21.40
2023-02-28T17:15:16.198Z,16.35
2023-02-28T17:17:44.417Z,15.35
2023-02-28T17:20:15.772Z,12.13
2023-02-28T17:22:42.452Z,11.93
2023-02-28T17:25:11.501Z,12.48
2023-02-28T17:27:38.695Z,28.30
2023-02-28T17:30:30.412Z,19.52
2023-02-28T17:32:57.964Z,12.63
2023-02-28T17:35:25.326Z,19.80
2023-02-28T17:37:52.590Z,13.32
2023-02-28T17:40:22.239Z,13.40
2023-02-28T17:42:50.427Z,10.15
2023-02-28T17:45:17.309Z,17.60
2023-02-28T17:47:47.748Z,8.82
2023-02-28T17:50:18.570Z,8.73
2023-02-28T17:52:45.460Z,16.27
2023-02-28T17:55:13.659Z,9.25
2023-02-28T17:57:42.765Z,9.32
2023-02-28T18:00:19.806Z,15.68
2023-02-28T18:02:46.975Z,14.43
2023-02-28T18:05:13.938Z,11.80
2023-02-28T18:07:41.599Z,13.95
2023-02-28T18:10:20.274Z,14.73
2023-02-28T18:12:49.113Z,8.18
2023-02-28T18:15:19.074Z,9.50
2023-02-28T18:17:46.001Z,9.63
2023-02-28T18:20:13.153Z,9.73
2023-02-28T18:22:41.297Z,11.73
2023-02-28T18:25:11.812Z,11.43
2023-02-28T18:27:39.257Z,16.48
2023-02-28T18:30:06.569Z,7.32
2023-02-28T18:32:33.399Z,11.10
2023-02-28T18:35:00.377Z,8.63
2023-02-28T18:37:28.052Z,12.32
2023-02-28T18:39:54.953Z,10.60
2023-02-28T18:42:21.812Z,15.63
2023-02-28T18:44:48.800Z,12.55
2023-02-28T18:47:15.489Z,12.32
2023-02-28T18:49:42.260Z,9.43
2023-02-28T18:52:08.886Z,13.70
2023-02-28T18:54:36.235Z,13.82
2023-02-28T18:57:02.905Z,15.25
2023-02-28T18:59:30.164Z,20.10
2023-02-28T19:01:58.800Z,13.80
2023-02-28T19:04:27.035Z,17.08
2023-02-28T19:06:55.464Z,13.25
2023-02-28T19:09:22.292Z,11.63
2023-02-28T19:11:49.401Z,11.93
2023-02-28T19:14:17.477Z,13.18
2023-02-28T19:16:45.661Z,10.88
2023-02-28T19:19:14.220Z,12.73
2023-02-28T19:21:44.737Z,12.90
2023-02-28T19:24:12.407Z,18.13
2023-02-28T19:26:39.415Z,15.68
2023-02-28T19:29:06.337Z,14.48
2023-02-28T19:31:33.735Z,11.75
2023-02-28T19:34:01.388Z,10.80
2023-02-28T19:36:28.555Z,16.02
2023-02-28T19:38:55.379Z,9.73
2023-02-28T19:41:22.103Z,14.07
2023-02-28T19:43:49.113Z,15.15
2023-02-28T19:46:16.260Z,14.05
2023-02-28T19:48:44.912Z,15.25
2023-02-28T19:51:13.495Z,11.05
2023-02-28T19:53:41.989Z,16.17
2023-02-28T19:56:09.781Z,13.50
2023-02-28T19:58:36.964Z,9.73
2023-02-28T20:01:17.519Z,15.93
2023-02-28T20:03:48.046Z,7.80
2023-02-28T20:06:15.242Z,10.32
2023-02-28T20:08:42.395Z,10.43
2023-02-28T20:11:15.775Z,6.57
2023-02-28T20:13:42.605Z,11.68
2023-02-28T20:16:10.947Z,16.25
2023-02-28T20:18:39.590Z,8.35
2023-02-28T20:21:09.488Z,9.55
2023-02-28T20:23:38.277Z,14.27
2023-02-28T20:26:05.202Z,9.45
2023-02-28T20:28:32.109Z,13.43
2023-02-28T20:30:58.864Z,11.13
2023-02-28T20:33:25.653Z,14.48
2023-02-28T20:35:59.621Z,18.52
2023-02-28T20:38:26.458Z,11.52
2023-02-28T20:41:00.151Z,12.02
2023-02-28T20:43:27.536Z,14.75
2023-02-28T20:45:57.325Z,13.95
2023-02-28T20:48:28.130Z,15.30
2023-02-28T20:50:56.443Z,16.35
2023-02-28T20:53:25.010Z,19.35
2023-02-28T20:56:07.667Z,15.32
2023-02-28T20:58:37.133Z,17.17
2023-02-28T21:01:18.406Z,18.27
2023-02-28T21:03:50.550Z,16.83
2023-02-28T21:06:19.313Z,19.25
2023-02-28T21:08:46.332Z,17.67
2023-02-28T21:11:16.220Z,21.75
2023-02-28T21:13:44.612Z,19.85
2023-02-28T21:16:13.919Z,14.90
2023-02-28T21:18:41.176Z,18.27
2023-02-28T21:21:11.487Z,16.88
2023-02-28T21:23:38.735Z,20.45
2023-02-28T21:26:08.640Z,20.70
2023-02-28T21:28:36.004Z,15.35
2023-02-28T21:31:05.026Z,19.00
2023-02-28T21:33:32.328Z,19.80
2023-02-28T21:36:03.166Z,13.20
2023-02-28T21:38:30.346Z,14.48
2023-02-28T21:40:57.037Z,8.30
2023-02-28T21:43:23.769Z,14.13
2023-02-28T21:45:50.463Z,12.10
2023-02-28T21:48:17.584Z,12.23
2023-02-28T21:50:54.388Z,11.68
2023-02-28T21:53:20.984Z,12.18
2023-02-28T21:55:47.662Z,11.35
2023-02-28T21:58:14.336Z,8.38
2023-02-28T22:00:41.842Z,21.23
2023-02-28T22:03:08.570Z,20.02
2023-02-28T22:05:35.480Z,11.95
2023-02-28T22:08:05.273Z,9.27
2023-02-28T22:10:34.364Z,13.50
2023-02-28T22:13:03.637Z,10.40
2023-02-28T22:15:31.720Z,12.02
2023-02-28T22:17:59.065Z,11.55
2023-02-28T22:20:25.733Z,12.80
2023-02-28T22:22:52.432Z,12.63
2023-02-28T22:25:19.411Z,10.52
2023-02-28T22:27:46.129Z,13.95
2023-02-28T22:30:13.138Z,8.40
2023-02-28T22:32:39.788Z,17.20
2023-02-28T22:35:07.227Z,12.73
2023-02-28T22:37:34.327Z,12.30
2023-02-28T22:40:01.099Z,13.00
2023-02-28T22:42:27.776Z,12.85
2023-02-28T22:44:54.408Z,12.73
2023-02-28T22:47:22.399Z,12.68
2023-02-28T22:49:49.090Z,13.05
2023-02-28T22:52:15.780Z,10.20
2023-02-28T22:54:42.455Z,14.27
2023-02-28T22:57:09.081Z,8.68
2023-02-28T22:59:37.993Z,9.82
2023-02-28T23:02:04.659Z,10.27
2023-02-28T23:04:31.369Z,8.30
2023-02-28T23:06:58.673Z,7.18
2023-02-28T23:09:25.336Z,6.20
2023-02-28T23:11:52.295Z,8.55
2023-02-28T23:14:20.451Z,6.72
2023-02-28T23:16:49.846Z,6.82
2023-02-28T23:19:19.931Z,6.18
2023-02-28T23:21:46.889Z,6.40
2023-02-28T23:24:15.959Z,5.38
2023-02-28T23:26:46.453Z,3.80
2023-02-28T23:29:14.878Z,4.85
2023-02-28T23:31:41.952Z,4.65
2023-02-28T23:34:09.597Z,4.95
2023-02-28T23:36:38.276Z,6.70
2023-02-28T23:39:06.319Z,6.35
2023-02-28T23:41:33.212Z,4.80
2023-02-28T23:43:59.803Z,7.68
2023-02-28T23:46:27.173Z,6.00
2023-02-28T23:48:53.789Z,6.28
2023-02-28T23:51:21.874Z,6.85
2023-02-28T23:53:51.491Z,7.50
2023-02-28T23:56:21.311Z,5.70
2023-02-28T23:58:48.396Z,5.57
